Time;durP1;ratioP1;P1;durP2;ratioP2;P2;SDS_P1;SDS_P2;PMS_P1;PMS_P2;Temp;Humidity;BMP_temperature;BMP_pressure;BME280_temperature;BME280_humidity;BME280_pressure;Samples;Min_cycle;Max_cycle;Signal;HPM_P1;HPM_P2
2022/12/26 00:01:40;;;;;;;5.50;3.50;;;;;;;-2.98;92.02;101995.25;10460114;28;20044;-75
2022/12/26 00:06:42;;;;;;;4.50;2.70;;;;;;;-2.95;91.88;102000.34;10514729;28;20045;-73
2022/12/26 00:11:45;;;;;;;4.18;3.05;;;;;;;-2.99;91.57;102001.63;10493701;28;20302;-72
2022/12/26 00:16:47;;;;;;;4.15;2.92;;;;;;;-3.01;91.56;101992.06;10509796;28;20055;-72
2022/12/26 00:21:49;;;;;;;5.13;3.15;;;;;;;-3.04;91.40;102004.81;10510584;28;20043;-72
2022/12/26 00:26:51;;;;;;;3.92;3.47;;;;;;;-3.05;91.64;102011.19;10513143;28;20036;-72
2022/12/26 00:31:53;;;;;;;3.92;3.45;;;;;;;-3.09;91.42;102014.34;10510097;28;20055;-73
2022/12/26 00:36:56;;;;;;;4.85;3.28;;;;;;;-3.20;91.39;102023.50;10511430;28;20566;-73
2022/12/26 00:41:58;;;;;;;5.03;3.67;;;;;;;-3.19;91.37;102019.81;10511847;28;20040;-72
2022/12/26 00:47:01;;;;;;;5.40;3.83;;;;;;;-3.17;91.53;102027.69;10494323;28;20051;-73
2022/12/26 00:52:03;;;;;;;5.20;3.65;;;;;;;-3.20;90.95;102028.03;10515814;28;20036;-77
2022/12/26 00:57:06;;;;;;;4.18;3.22;;;;;;;-3.17;91.50;102019.66;10519182;28;20048;-78
2022/12/26 01:02:36;;;;;;;6.25;4.43;;;;;;;-3.23;91.48;102015.75;10522928;28;20039;-75
2022/12/26 01:07:35;;;;;;;5.18;3.95;;;;;;;-3.22;91.44;102014.75;10495373;28;20048;-73
2022/12/26 01:12:38;;;;;;;5.47;4.03;;;;;;;-3.21;91.49;102019.13;10513690;28;20071;-73
2022/12/26 01:17:41;;;;;;;6.63;4.20;;;;;;;-3.20;91.22;102010.06;10503071;28;20064;-73
2022/12/26 01:22:43;;;;;;;6.28;4.43;;;;;;;-3.23;91.34;102020.28;10528264;28;20037;-73
2022/12/26 01:27:46;;;;;;;5.80;4.22;;;;;;;-3.26;91.25;102040.25;10517672;28;20045;-73
2022/12/26 01:32:48;;;;;;;5.53;4.30;;;;;;;-3.25;91.09;102041.91;10504710;28;20082;-73
2022/12/26 01:37:51;;;;;;;5.15;3.80;;;;;;;-3.38;91.03;102039.63;10527142;28;20045;-72
2022/12/26 01:42:53;;;;;;;4.63;3.80;;;;;;;-3.41;91.56;102042.63;10493709;28;20076;-73
2022/12/26 01:48:14;;;;;;;5.43;4.00;;;;;;;-3.46;91.67;102041.44;10442351;28;20140;-73
2022/12/26 01:53:20;;;;;;;3.53;3.22;;;;;;;-3.54;91.44;102033.28;10477569;28;20037;-73
2022/12/26 01:58:28;;;;;;;4.63;3.60;;;;;;;-3.55;91.51;102045.88;10469982;28;20063;-72
2022/12/26 02:08:52;;;;;;;4.63;3.10;;;;;;;-3.55;91.40;102034.28;10462977;28;19921;-72
2022/12/26 02:13:55;;;;;;;4.50;3.67;;;;;;;-3.54;91.94;102044.03;10471558;28;20047;-73
2022/12/26 02:18:58;;;;;;;4.60;3.88;;;;;;;-3.54;91.84;102047.53;10464274;28;20053;-73
2022/12/26 02:24:09;;;;;;;6.95;4.50;;;;;;;-3.49;92.29;102036.34;10471009;28;20072;-73
2022/12/26 02:29:52;;;;;;;6.85;4.20;;;;;;;-3.53;92.12;102034.97;10473383;28;20056;-72
2022/12/26 02:35:30;;;;;;;6.47;4.38;;;;;;;-3.59;92.86;102047.16;10479050;28;20072;-73
2022/12/26 02:40:41;;;;;;;6.40;4.47;;;;;;;-3.66;92.58;102049.59;10436423;28;20428;-73
2022/12/26 03:13:15;;;;;;;6.40;4.47;;;;;;;-3.52;93.54;102053.59;10442685;28;20544;-72
2022/12/26 03:18:19;;;;;;;6.85;4.50;;;;;;;-3.47;93.49;102045.94;10451338;28;20041;-73
2022/12/26 03:23:23;;;;;;;6.85;4.43;;;;;;;-3.44;93.85;102042.09;10463932;28;20056;-73
2022/12/26 03:28:26;;;;;;;6.43;4.57;;;;;;;-3.46;93.60;102053.00;10482321;28;20047;-74
2022/12/26 03:39:08;;;;;;;4.57;3.42;;;;;;;-3.41;93.75;102055.22;10454761;28;20056;-72
2022/12/26 04:45:40;;;;;;;8.48;4.60;;;;;;;-3.65;92.13;102040.56;10514114;28;20033;-72
2022/12/26 04:50:51;;;;;;;5.18;3.85;;;;;;;-3.68;92.17;102037.34;10509841;28;20517;-72
2022/12/26 04:55:53;;;;;;;8.20;4.32;;;;;;;-3.78;91.76;102050.84;10526962;28;20118;-72
2022/12/26 05:09:32;;;;;;;10.00;4.82;;;;;;;-3.91;91.33;102046.84;10511366;28;20051;-73
2022/12/26 05:11:41;;;;;;;4.97;4.07;;;;;;;-4.11;90.67;102038.09;10515752;28;20045;-72
2022/12/26 05:38:15;;;;;;;8.25;4.00;;;;;;;-4.35;91.61;102044.00;10529543;28;20442;-72
2022/12/26 05:43:18;;;;;;;4.30;2.67;;;;;;;-4.46;90.98;102041.56;10529916;28;20049;-73
2022/12/26 05:48:20;;;;;;;3.95;3.03;;;;;;;-4.57;90.97;102043.41;10530566;28;20048;-73
2022/12/26 05:53:23;;;;;;;3.42;2.25;;;;;;;-4.59;90.58;102053.44;10512069;28;20037;-73
2022/12/26 05:58:25;;;;;;;6.43;3.83;;;;;;;-4.61;91.10;102046.53;10512206;28;20055;-73
2022/12/26 06:03:28;;;;;;;6.10;3.70;;;;;;;-4.66;91.06;102051.50;10523481;28;20570;-73
2022/12/26 06:08:31;;;;;;;7.13;4.03;;;;;;;-4.67;91.41;102047.16;10528733;28;20407;-73
2022/12/26 06:13:34;;;;;;;8.57;4.25;;;;;;;-4.74;91.17;102052.22;10513430;28;20048;-72
2022/12/26 06:18:37;;;;;;;5.68;4.22;;;;;;;-4.66;91.38;102048.84;10506838;28;20051;-73
2022/12/26 06:23:39;;;;;;;6.45;3.63;;;;;;;-4.63;91.68;102057.41;10529068;28;20406;-73
2022/12/26 06:28:42;;;;;;;10.00;3.72;;;;;;;-4.68;91.56;102054.34;10512107;28;20047;-73
2022/12/26 06:33:45;;;;;;;4.57;3.20;;;;;;;-4.75;91.51;102044.34;10511128;28;20044;-73
2022/12/26 06:38:47;;;;;;;5.85;3.47;;;;;;;-4.86;91.69;102042.69;10527895;28;20055;-73
2022/12/26 06:43:50;;;;;;;4.43;2.83;;;;;;;-4.90;91.70;102046.66;10527263;28;20047;-74
2022/12/26 06:48:52;;;;;;;3.67;2.25;;;;;;;-4.96;91.44;102040.06;10497093;28;20048;-73
2022/12/26 06:53:59;;;;;;;3.75;2.40;;;;;;;-5.00;91.69;102037.81;10469051;28;20475;-73
2022/12/26 06:59:03;;;;;;;4.95;3.80;;;;;;;-5.07;91.96;102034.00;10490483;28;20044;-73
2022/12/26 07:04:05;;;;;;;5.03;3.03;;;;;;;-5.18;91.42;102035.88;10507619;28;20553;-73
2022/12/26 07:09:13;;;;;;;2.53;2.00;;;;;;;-5.21;91.64;102041.53;10527274;28;20044;-73
2022/12/26 07:14:15;;;;;;;5.47;3.03;;;;;;;-5.26;91.83;102035.75;10509446;28;20062;-73
2022/12/26 07:19:18;;;;;;;3.85;2.28;;;;;;;-5.32;91.36;102049.72;10508524;28;20036;-73
2022/12/26 07:24:22;;;;;;;4.25;2.50;;;;;;;-5.33;91.94;102045.34;10527366;28;20051;-73
2022/12/26 07:29:24;;;;;;;2.53;2.17;;;;;;;-5.30;91.84;102050.41;10525888;28;20041;-73
2022/12/26 07:34:27;;;;;;;2.85;1.88;;;;;;;-5.32;92.01;102065.75;10499882;28;20043;-74
2022/12/26 07:39:29;;;;;;;5.47;3.13;;;;;;;-5.39;91.89;102045.91;10516680;28;20063;-73
2022/12/26 07:44:32;;;;;;;4.40;3.03;;;;;;;-5.40;92.10;102056.75;10483906;28;20033;-72
2022/12/26 07:49:34;;;;;;;5.43;3.78;;;;;;;-5.35;91.85;102059.84;10526083;28;20063;-73
2022/12/26 07:54:36;;;;;;;6.45;3.75;;;;;;;-5.35;92.41;102058.03;10526497;28;20414;-73
2022/12/26 07:59:38;;;;;;;5.43;3.40;;;;;;;-5.41;92.51;102055.91;10527863;28;20041;-72
2022/12/26 08:04:41;;;;;;;5.07;3.45;;;;;;;-5.45;91.84;102054.50;10499883;28;20040;-72
2022/12/26 08:09:44;;;;;;;8.35;3.67;;;;;;;-5.47;92.28;102056.47;10534817;28;20036;-73
2022/12/26 08:14:46;;;;;;;8.55;3.80;;;;;;;-5.49;92.33;102058.47;10530885;28;20423;-72
2022/12/26 08:19:50;;;;;;;7.18;4.45;;;;;;;-5.56;93.04;102055.47;10534052;28;20048;-73
2022/12/26 08:24:52;;;;;;;4.65;3.08;;;;;;;-5.60;93.02;102054.09;10533362;28;20044;-72
2022/12/26 08:29:54;;;;;;;6.35;3.65;;;;;;;-5.64;93.43;102055.34;10532712;28;20032;-72
2022/12/26 08:34:56;;;;;;;6.28;3.03;;;;;;;-5.64;93.11;102055.34;10515670;28;20418;-73
2022/12/26 08:39:59;;;;;;;2.53;2.33;;;;;;;-5.71;92.74;102059.59;10528922;28;20059;-74
2022/12/26 08:45:01;;;;;;;3.88;3.13;;;;;;;-5.82;92.31;102041.84;10513749;28;20029;-74
2022/12/26 08:50:03;;;;;;;4.38;2.92;;;;;;;-5.83;92.47;102048.19;10541644;28;20048;-73
2022/12/26 08:55:06;;;;;;;6.78;4.13;;;;;;;-5.83;92.80;102050.84;10514270;28;20052;-73
2022/12/26 09:00:09;;;;;;;5.95;3.80;;;;;;;-5.81;92.72;102048.03;10495826;28;20410;-73
2022/12/26 09:05:11;;;;;;;5.05;3.50;;;;;;;-5.82;92.28;102041.84;10502185;28;20055;-73
2022/12/26 09:10:13;;;;;;;7.88;4.28;;;;;;;-5.78;92.10;102029.88;10530879;28;20059;-73
2022/12/26 09:15:16;;;;;;;8.55;3.88;;;;;;;-5.74;92.06;102040.28;10491419;28;20072;-74
2022/12/26 09:20:18;;;;;;;5.15;3.10;;;;;;;-5.68;92.35;102037.06;10525353;28;20521;-73
2022/12/26 09:25:23;;;;;;;4.10;3.00;;;;;;;-5.70;92.21;102028.34;10522599;28;20048;-73
2022/12/26 09:30:26;;;;;;;7.70;4.13;;;;;;;-5.72;92.27;102030.31;10527402;28;20060;-74
2022/12/26 09:35:28;;;;;;;6.55;3.72;;;;;;;-5.74;91.13;102026.91;10529773;28;20044;-75
2022/12/26 09:40:40;;;;;;;4.63;2.53;;;;;;;-5.86;91.38;102020.88;10530847;28;20044;-74
2022/12/26 09:46:05;;;;;;;4.72;3.10;;;;;;;-5.92;90.87;102033.00;10484333;28;20063;-74
2022/12/26 09:51:08;;;;;;;3.17;2.20;;;;;;;-5.95;90.23;102025.25;10535808;28;20047;-74
2022/12/26 09:56:14;;;;;;;5.40;2.63;;;;;;;-5.98;90.03;102024.72;10514397;28;20040;-75
2022/12/26 10:01:22;;;;;;;3.53;2.15;;;;;;;-6.00;89.96;102008.81;10490759;28;20526;-73
2022/12/26 10:06:47;;;;;;;5.78;2.85;;;;;;;-6.06;89.54;102011.22;10511937;28;20043;-74
2022/12/26 10:11:55;;;;;;;3.72;2.83;;;;;;;-6.06;89.39;102000.53;10497565;28;20230;-73
2022/12/26 10:17:03;;;;;;;4.18;2.92;;;;;;;-6.06;89.54;101996.03;10529017;28;20537;-74
2022/12/26 10:22:27;;;;;;;6.50;3.45;;;;;;;-5.96;89.97;101986.16;10512249;28;20051;-74
2022/12/26 10:27:34;;;;;;;6.38;3.13;;;;;;;-5.94;89.57;101994.03;10529398;28;20127;-75
2022/12/26 10:32:40;;;;;;;3.58;2.28;;;;;;;-5.94;89.39;101976.19;10471420;28;20041;-75
2022/12/26 10:37:43;;;;;;;6.13;3.47;;;;;;;-5.99;89.71;101981.09;10500699;28;20064;-75
2022/12/26 10:42:51;;;;;;;5.22;3.03;;;;;;;-6.02;88.98;101984.06;10494612;28;20033;-75
2022/12/26 10:47:53;;;;;;;;;;;;;;;-6.10;88.57;101976.72;10508895;28;20067;-76
2022/12/26 10:52:57;;;;;;;3.70;2.30;;;;;;;-6.14;88.50;101982.50;10510759;28;20203;-75
2022/12/26 10:58:13;;;;;;;7.75;3.15;;;;;;;-6.17;89.08;101982.78;10510538;28;20055;-75
2022/12/26 11:03:17;;;;;;;4.60;3.15;;;;;;;-6.20;88.93;101972.38;10453889;28;20056;-74
2022/12/26 11:08:45;;;;;;;2.97;1.98;;;;;;;-6.31;88.86;101968.00;10526846;28;20242;-75
2022/12/26 11:13:50;;;;;;;;;;;;;;;-6.46;88.47;101966.72;10520419;28;20048;-74
2022/12/26 11:18:53;;;;;;;4.55;1.98;;;;;;;-6.51;88.32;101963.63;10502614;28;20371;-75
2022/12/26 11:24:18;;;;;;;2.35;1.80;;;;;;;-6.50;88.65;101954.63;10505732;28;20053;-76
2022/12/26 11:29:23;;;;;;;3.90;1.92;;;;;;;-6.50;88.91;101958.13;10498729;28;20534;-76
2022/12/26 11:34:31;;;;;;;2.78;2.08;;;;;;;-6.45;88.89;101952.38;10525425;28;20041;-74
2022/12/26 11:39:37;;;;;;;3.63;2.60;;;;;;;-6.42;88.54;101955.63;10495708;28;20072;-76
2022/12/26 11:44:44;;;;;;;3.47;2.13;;;;;;;-6.41;88.23;101943.13;10507602;28;20032;-76
2022/12/26 11:50:02;;;;;;;4.13;2.83;;;;;;;-6.36;88.63;101959.56;10496765;28;20044;-75
2022/12/26 11:55:32;;;;;;;10.50;3.70;;;;;;;-6.30;88.39;101947.47;10494802;28;20044;-75
2022/12/26 12:00:39;;;;;;;7.40;3.50;;;;;;;-6.31;88.78;101956.47;10506585;28;20045;-75
2022/12/26 12:06:03;;;;;;;5.65;2.97;;;;;;;-6.32;88.31;101952.13;10507145;28;20053;-74
2022/12/26 12:11:45;;;;;;;6.57;3.80;;;;;;;-6.30;88.06;101951.00;10514463;28;20033;-76
2022/12/26 12:17:19;;;;;;;4.55;2.78;;;;;;;-6.46;87.97;101948.03;10476528;28;20049;-77
2022/12/26 12:22:33;;;;;;;9.68;3.08;;;;;;;-6.59;87.30;101950.97;10507364;28;20060;-75
2022/12/26 12:27:47;;;;;;;5.18;2.80;;;;;;;-6.62;87.74;101956.56;10505780;28;20056;-77
2022/12/26 12:32:53;;;;;;;6.25;3.42;;;;;;;-6.69;87.32;101955.44;10486536;28;20503;-77
2022/12/26 12:38:23;;;;;;;4.82;2.85;;;;;;;-6.73;87.57;101954.88;10487712;28;20079;-78
2022/12/26 12:43:41;;;;;;;5.88;3.00;;;;;;;-6.82;87.39;101955.66;10517996;28;20051;-77
2022/12/26 12:48:53;;;;;;;7.97;3.35;;;;;;;-6.86;87.82;101953.41;10510658;28;20048;-76
2022/12/26 12:54:10;;;;;;;6.90;3.38;;;;;;;-6.89;87.37;101953.69;10513062;28;20059;-78
2022/12/26 12:59:36;;;;;;;8.77;3.58;;;;;;;-6.93;87.83;101952.28;10506674;28;20044;-77
2022/12/26 13:04:44;;;;;;;9.75;4.57;;;;;;;-6.99;87.93;101937.63;10496774;28;20037;-76
2022/12/26 13:10:02;;;;;;;8.18;4.22;;;;;;;-7.03;88.31;101938.88;10532109;28;20653;-77
2022/12/26 13:15:08;;;;;;;12.85;4.38;;;;;;;-7.08;88.12;101931.31;10531908;28;20055;-76
2022/12/26 13:20:16;;;;;;;7.45;3.47;;;;;;;-7.07;88.41;101941.00;10514322;28;20043;-76
2022/12/26 13:25:19;;;;;;;7.35;4.38;;;;;;;-7.09;88.43;101931.44;10529261;28;20047;-77
2022/12/26 13:30:21;;;;;;;10.15;5.88;;;;;;;-7.21;88.38;101930.69;10512935;28;20049;-78
2022/12/26 13:35:45;;;;;;;12.30;5.30;;;;;;;-7.31;88.54;101919.09;10531156;28;20530;-77
2022/12/26 13:43:53;;;;;;;14.13;6.07;;;;;;;-7.36;88.95;101905.34;10530106;28;20044;-77
2022/12/26 13:46:43;;;;;;;11.88;6.18;;;;;;;-7.40;89.11;101903.94;10512504;28;20051;-76
2022/12/26 13:51:48;;;;;;;10.25;5.93;;;;;;;-7.42;89.59;101889.91;10512788;28;20063;-76
2022/12/26 13:57:03;;;;;;;12.80;6.22;;;;;;;-7.44;90.18;101883.84;10529445;28;20044;-77
2022/12/26 14:02:35;;;;;;;8.80;4.90;;;;;;;-7.43;90.08;101885.53;10517551;28;20044;-77
2022/12/26 14:07:58;;;;;;;16.17;7.40;;;;;;;-7.50;90.16;101877.22;10490918;28;20056;-75
2022/12/26 14:13:33;;;;;;;11.90;6.57;;;;;;;-7.51;90.94;101869.34;10514026;28;20036;-77
2022/12/26 14:18:35;;;;;;;14.68;7.18;;;;;;;-7.52;90.55;101870.34;10522149;28;20059;-75
2022/12/26 14:23:55;;;;;;;13.57;6.50;;;;;;;-7.57;90.77;101878.75;10522518;28;20041;-77
2022/12/26 14:29:16;;;;;;;15.05;7.85;;;;;;;-7.59;90.93;101878.03;10493006;28;20061;-76
2022/12/26 14:34:28;;;;;;;12.50;7.05;;;;;;;-7.59;91.32;101872.69;10502955;28;20048;-77
2022/12/26 14:40:00;;;;;;;13.25;5.38;;;;;;;-7.57;91.07;101880.56;10492702;28;20056;-76
2022/12/26 14:45:04;;;;;;;14.23;6.75;;;;;;;-7.55;91.58;101863.44;10525876;28;20045;-77
2022/12/26 14:50:34;;;;;;;11.35;5.63;;;;;;;-7.53;91.86;101869.50;10516820;28;20045;-77
2022/12/26 14:55:47;;;;;;;8.85;4.20;;;;;;;-7.55;91.98;101862.59;10525373;28;20143;-77
2022/12/26 15:00:50;;;;;;;11.95;5.90;;;;;;;-7.54;91.86;101853.63;10507157;28;20053;-77
2022/12/26 15:06:01;;;;;;;7.20;4.30;;;;;;;-7.53;92.32;101837.50;10527044;28;20410;-74
2022/12/26 15:11:26;;;;;;;7.55;4.97;;;;;;;-7.54;92.64;101842.97;10532605;28;20044;-75
2022/12/26 15:16:40;;;;;;;6.75;3.88;;;;;;;-7.56;92.53;101827.13;10533276;28;20052;-76
2022/12/26 15:21:49;;;;;;;10.32;5.00;;;;;;;-7.58;93.03;101825.56;10487886;28;20052;-74
2022/12/26 15:27:56;;;;;;;6.85;3.90;;;;;;;-7.62;92.86;101811.66;10522602;28;20051;-75
2022/12/26 15:33:34;;;;;;;9.55;4.97;;;;;;;-7.64;92.25;101787.78;10317032;28;20055;-75
2022/12/26 15:38:46;;;;;;;6.30;3.97;;;;;;;-7.62;92.37;101806.34;10505343;28;20051;-75
2022/12/26 15:43:57;;;;;;;6.55;4.18;;;;;;;-7.66;92.10;101811.06;10483380;28;20043;-74
2022/12/26 15:49:29;;;;;;;5.60;3.28;;;;;;;-7.65;92.23;101804.75;10492432;28;20053;-76
2022/12/26 15:54:46;;;;;;;8.18;5.00;;;;;;;-7.66;92.27;101800.41;10486932;28;20037;-76
2022/12/26 16:00:12;;;;;;;8.20;5.72;;;;;;;-7.69;92.73;101799.84;10524566;28;20032;-74
2022/12/26 16:05:59;;;;;;;7.88;4.43;;;;;;;-7.71;92.74;101786.66;10506591;28;20503;-74
2022/12/26 16:11:21;;;;;;;3.47;2.83;;;;;;;-7.77;92.51;101779.22;10514243;28;20041;-75
2022/12/26 16:16:36;;;;;;;3.55;2.75;;;;;;;-7.78;93.20;101785.53;10518105;28;20518;-75
2022/12/26 16:27:02;;;;;;;4.85;2.88;;;;;;;-7.78;93.17;101758.88;10527450;28;20044;-74
2022/12/26 16:32:05;;;;;;;4.93;3.10;;;;;;;-7.76;93.04;101753.41;10514865;28;20028;-75
2022/12/26 16:37:10;;;;;;;4.80;2.85;;;;;;;-7.74;92.76;101740.78;10515927;28;20060;-76
2022/12/26 16:42:28;;;;;;;7.15;3.22;;;;;;;-7.77;92.61;101727.75;10523116;28;20036;-75
2022/12/26 16:47:35;;;;;;;4.45;3.33;;;;;;;-7.77;92.78;101735.75;10498458;28;20397;-75
2022/12/26 16:52:38;;;;;;;3.90;2.50;;;;;;;-7.85;92.60;101732.88;10481919;28;20415;-75
2022/12/26 16:57:41;;;;;;;5.18;3.30;;;;;;;-7.93;92.53;101722.94;10513247;28;20044;-75
2022/12/26 17:02:45;;;;;;;1.35;0.82;;;;;;;-7.97;92.65;101719.69;10518385;28;20040;-77
2022/12/26 17:07:49;;;;;;;2.67;2.17;;;;;;;-7.99;93.07;101728.75;10511315;28;20554;-78
2022/12/26 17:12:53;;;;;;;5.70;3.60;;;;;;;-8.03;92.88;101722.88;10513992;28;20056;-77
2022/12/26 17:17:57;;;;;;;5.22;3.22;;;;;;;-8.05;92.76;101718.66;10489276;28;20041;-75
2022/12/26 17:23:45;;;;;;;3.22;2.65;;;;;;;-8.15;92.51;101697.34;10504107;28;20541;-76
2022/12/26 17:28:48;;;;;;;4.85;2.97;;;;;;;-8.23;92.54;101695.31;10514675;28;20056;-77
2022/12/26 17:33:55;;;;;;;2.38;2.17;;;;;;;-8.24;92.38;101685.66;10517074;28;20518;-77
2022/12/26 17:39:12;;;;;;;3.53;1.42;;;;;;;-8.21;92.15;101679.22;10526660;28;20560;-77
2022/12/26 17:44:43;;;;;;;3.55;1.83;;;;;;;-8.22;92.71;101666.88;10505685;28;20040;-76
2022/12/26 17:49:46;;;;;;;5.40;2.92;;;;;;;-8.25;92.87;101652.03;10523896;28;20040;-81
2022/12/26 17:54:49;;;;;;;4.72;3.20;;;;;;;-8.23;92.75;101651.88;10506214;28;20053;-79
2022/12/26 17:59:53;;;;;;;3.85;2.65;;;;;;;-8.27;92.94;101643.34;10526156;28;20064;-80
2022/12/26 18:04:55;;;;;;;2.70;2.50;;;;;;;-8.28;92.89;101638.97;10475886;28;20056;-78
2022/12/26 18:09:59;;;;;;;3.10;2.70;;;;;;;-8.27;92.46;101629.19;10532553;28;20049;-78
2022/12/26 18:15:01;;;;;;;3.00;2.50;;;;;;;-8.30;92.47;101605.50;10513327;28;20075;-77
2022/12/26 18:20:05;;;;;;;3.22;2.70;;;;;;;-8.33;92.66;101603.94;10532739;28;20055;-78
2022/12/26 18:25:08;;;;;;;3.40;2.65;;;;;;;-8.34;92.01;101602.28;10514003;28;20055;-78
2022/12/26 18:30:16;;;;;;;3.25;2.45;;;;;;;-8.30;92.81;101585.03;10496513;28;20041;-78
2022/12/26 18:35:19;;;;;;;3.55;2.90;;;;;;;-8.26;92.02;101574.97;10501298;28;20427;-77
2022/12/26 18:40:30;;;;;;;2.88;2.38;;;;;;;-8.24;92.57;101580.97;10523037;28;20049;-77
2022/12/26 18:45:33;;;;;;;3.30;2.58;;;;;;;-8.19;93.04;101573.41;10482879;28;20041;-78
2022/12/26 18:50:35;;;;;;;3.28;2.78;;;;;;;-8.14;92.58;101568.56;10508224;28;20040;-77
2022/12/26 18:55:39;;;;;;;4.05;2.28;;;;;;;-8.07;92.75;101550.19;10520674;28;20041;-78
2022/12/26 19:00:41;;;;;;;2.97;2.50;;;;;;;-7.97;92.87;101543.06;10524191;28;20048;-76
2022/12/26 19:05:43;;;;;;;4.25;2.55;;;;;;;-7.91;93.22;101539.84;10511649;28;20403;-75
2022/12/26 19:10:46;;;;;;;3.17;2.42;;;;;;;-7.82;92.98;101522.16;10519936;28;20051;-77
2022/12/26 19:15:48;;;;;;;2.90;2.60;;;;;;;-7.75;92.92;101529.47;10505763;28;20060;-76
2022/12/26 19:20:51;;;;;;;3.38;2.40;;;;;;;-7.68;93.13;101522.56;10514382;28;20056;-72
2022/12/26 19:25:53;;;;;;;3.33;2.60;;;;;;;-7.60;92.97;101519.22;10510032;28;20048;-77
2022/12/26 19:30:55;;;;;;;4.55;2.38;;;;;;;-7.53;93.74;101506.16;10513766;28;20033;-77
2022/12/26 19:35:57;;;;;;;2.80;2.35;;;;;;;-7.45;93.15;101511.63;10475107;28;20040;-77
2022/12/26 19:41:08;;;;;;;3.05;2.72;;;;;;;-7.40;92.83;101496.88;10487980;28;20507;-79
2022/12/26 19:46:14;;;;;;;3.58;2.90;;;;;;;-7.34;92.93;101496.31;10507575;28;20036;-76
2022/12/26 19:51:16;;;;;;;3.13;2.45;;;;;;;-7.28;93.07;101486.91;10504043;28;20044;-77
2022/12/26 19:56:21;;;;;;;3.97;2.40;;;;;;;-7.22;93.24;101477.47;10503831;28;20705;-74
2022/12/26 20:01:26;;;;;;;2.53;2.33;;;;;;;-7.18;92.68;101473.53;10523462;28;20044;-75
2022/12/26 20:06:30;;;;;;;1.92;1.73;;;;;;;-7.15;93.49;101460.72;10499051;28;20404;-75
2022/12/26 20:11:38;;;;;;;3.65;2.50;;;;;;;-7.07;93.07;101449.34;10479270;28;20052;-74
2022/12/26 20:16:41;;;;;;;2.15;1.95;;;;;;;-7.03;92.50;101419.56;10519442;28;20044;-77
2022/12/26 20:21:43;;;;;;;2.83;2.20;;;;;;;-7.03;93.01;101424.06;10489777;28;20052;-75
2022/12/26 20:26:46;;;;;;;1.83;1.50;;;;;;;-7.01;92.84;101406.91;10519429;28;20041;-74
2022/12/26 20:31:48;;;;;;;3.13;1.75;;;;;;;-7.02;92.84;101407.91;10515325;28;20047;-75
2022/12/26 20:36:50;;;;;;;4.00;2.00;;;;;;;-6.96;92.55;101408.28;10522543;28;20052;-74
2022/12/26 20:41:53;;;;;;;2.58;1.70;;;;;;;-6.96;92.41;101414.47;10496121;28;20060;-74
2022/12/26 20:46:55;;;;;;;3.45;2.03;;;;;;;-6.88;92.30;101413.75;10522234;28;20045;-74
2022/12/26 20:51:58;;;;;;;1.67;1.50;;;;;;;-6.85;92.14;101387.59;10522321;28;20068;-75
2022/12/26 20:57:00;;;;;;;2.03;1.60;;;;;;;-6.86;91.96;101403.75;10502223;28;20060;-74
2022/12/26 21:02:02;;;;;;;1.70;1.27;;;;;;;-6.89;92.01;101385.38;10513572;28;20072;-76
2022/12/26 21:07:04;;;;;;;1.30;1.20;;;;;;;-6.90;91.40;101399.72;10514889;28;20049;-74
2022/12/26 21:12:07;;;;;;;3.05;2.03;;;;;;;-6.93;91.32;101363.50;10527031;28;20059;-76
2022/12/26 21:17:09;;;;;;;2.15;1.10;;;;;;;-6.89;90.72;101361.38;10531241;28;20048;-84
2022/12/26 21:22:11;;;;;;;1.30;1.13;;;;;;;-6.85;91.08;101357.41;10548949;28;20048;-80
2022/12/26 21:27:14;;;;;;;1.75;1.02;;;;;;;-6.85;90.97;101344.06;10532295;28;20055;-78
2022/12/26 21:37:47;;;;;;;1.52;1.10;;;;;;;-6.91;90.97;101337.50;10523020;28;20044;-81
2022/12/26 21:42:50;;;;;;;1.75;1.10;;;;;;;-6.95;90.25;101329.94;10532094;28;20056;-77
2022/12/26 21:47:56;;;;;;;1.27;0.90;;;;;;;-6.93;90.41;101327.97;10532225;28;20048;-78
2022/12/26 21:52:58;;;;;;;0.80;0.80;;;;;;;-6.97;90.48;101321.25;10495513;28;20506;-82
2022/12/26 21:58:02;;;;;;;1.60;1.20;;;;;;;-7.02;90.26;101319.03;10517606;28;20388;-83
2022/12/26 22:08:29;;;;;;;1.38;1.20;;;;;;;-7.12;88.85;101279.09;10490584;28;20811;-78
2022/12/26 22:13:40;;;;;;;1.38;1.10;;;;;;;-7.10;89.29;101274.47;10513140;28;20515;-73
2022/12/26 22:19:08;;;;;;;2.35;1.35;;;;;;;-7.06;88.74;101281.16;10530171;28;20055;-74
2022/12/26 22:24:10;;;;;;;2.67;1.08;;;;;;;-7.06;88.43;101275.84;10528397;28;20059;-73
2022/12/26 22:29:17;;;;;;;0.98;0.95;;;;;;;-7.16;88.18;101271.53;10511648;28;20044;-78
2022/12/26 22:34:23;;;;;;;1.05;1.05;;;;;;;-7.27;87.15;101272.63;10499176;28;20041;-77
2022/12/26 22:39:26;;;;;;;2.42;0.88;;;;;;;-7.34;87.23;101248.38;10511136;28;20076;-75
2022/12/26 22:44:28;;;;;;;1.00;0.90;;;;;;;-7.36;86.90;101244.19;10529508;28;20450;-74
2022/12/26 22:49:30;;;;;;;1.95;1.10;;;;;;;-7.40;86.80;101243.66;10511795;28;20050;-74
2022/12/26 22:54:33;;;;;;;0.80;0.80;;;;;;;-7.41;87.03;101227.81;10504220;28;20039;-73
2022/12/26 22:59:39;;;;;;;0.80;0.80;;;;;;;-7.46;86.76;101230.06;10528257;28;20059;-73
2022/12/26 23:04:42;;;;;;;1.92;1.30;;;;;;;-7.46;87.07;101230.06;10525440;28;20032;-73
2022/12/26 23:09:44;;;;;;;2.25;1.00;;;;;;;-7.43;86.95;101230.63;10509638;28;20518;-74
2022/12/26 23:14:51;;;;;;;2.00;1.20;;;;;;;-7.36;87.41;101220.19;10472410;28;20044;-72
2022/12/26 23:25:14;;;;;;;1.23;1.10;;;;;;;-7.61;85.80;101237.75;10513706;28;20354;-71
2022/12/26 23:30:17;;;;;;;2.33;1.40;;;;;;;-7.63;85.99;101234.41;10522781;28;20094;-71
2022/12/26 23:35:20;;;;;;;1.20;1.10;;;;;;;-7.74;85.85;101237.25;10500010;28;20036;-72
2022/12/26 23:40:22;;;;;;;2.25;1.00;;;;;;;-7.88;85.26;101227.91;10498423;28;20044;-74
2022/12/26 23:45:25;;;;;;;2.25;1.42;;;;;;;-7.86;85.36;101227.75;10520049;28;20384;-73
2022/12/26 23:50:27;;;;;;;1.00;1.00;;;;;;;-8.07;85.68;101252.78;10526890;28;20049;-73
2022/12/26 23:55:29;;;;;;;0.93;0.93;;;;;;;-8.17;85.75;101246.66;10543622;28;20043;-76
